sensor_id;sensor_type;location;lat;lon;timestamp;P1;durP1;ratioP1;P2;durP2;ratioP2
6828;SDS011;17930;48.592;8.868;2023-11-19T00:01:43;6.17;;;4.50;;
6828;SDS011;17930;48.592;8.868;2023-11-19T00:04:11;5.57;;;4.53;;
6828;SDS011;17930;48.592;8.868;2023-11-19T00:06:38;6.23;;;4.30;;
6828;SDS011;17930;48.592;8.868;2023-11-19T00:09:06;7.83;;;4.80;;
6828;SDS011;17930;48.592;8.868;2023-11-19T00:11:33;6.53;;;4.30;;
6828;SDS011;17930;48.592;8.868;2023-11-19T00:14:00;5.97;;;4.47;;
6828;SDS011;17930;48.592;8.868;2023-11-19T00:16:27;7.97;;;4.67;;
6828;SDS011;17930;48.592;8.868;2023-11-19T00:18:53;9.90;;;4.50;;
6828;SDS011;17930;48.592;8.868;2023-11-19T00:21:21;5.83;;;4.30;;
6828;SDS011;17930;48.592;8.868;2023-11-19T00:23:48;6.80;;;4.30;;
6828;SDS011;17930;48.592;8.868;2023-11-19T00:26:15;7.00;;;4.67;;
6828;SDS011;17930;48.592;8.868;2023-11-19T00:28:41;6.80;;;5.07;;
6828;SDS011;17930;48.592;8.868;2023-11-19T00:31:09;6.23;;;4.27;;
6828;SDS011;17930;48.592;8.868;2023-11-19T00:33:35;6.43;;;4.33;;
6828;SDS011;17930;48.592;8.868;2023-11-19T00:36:03;6.97;;;4.30;;
6828;SDS011;17930;48.592;8.868;2023-11-19T00:38:31;7.60;;;4.43;;
6828;SDS011;17930;48.592;8.868;2023-11-19T00:40:58;5.70;;;4.00;;
6828;SDS011;17930;48.592;8.868;2023-11-19T00:43:24;6.07;;;4.30;;
6828;SDS011;17930;48.592;8.868;2023-11-19T00:45:53;7.00;;;5.23;;
6828;SDS011;17930;48.592;8.868;2023-11-19T00:48:20;6.50;;;4.53;;
6828;SDS011;17930;48.592;8.868;2023-11-19T00:50:47;6.37;;;4.27;;
6828;SDS011;17930;48.592;8.868;2023-11-19T00:53:14;4.67;;;3.93;;
6828;SDS011;17930;48.592;8.868;2023-11-19T00:55:42;5.87;;;4.13;;
6828;SDS011;17930;48.592;8.868;2023-11-19T00:58:09;5.20;;;3.80;;
6828;SDS011;17930;48.592;8.868;2023-11-19T01:00:36;6.13;;;4.63;;
6828;SDS011;17930;48.592;8.868;2023-11-19T01:03:02;7.07;;;4.43;;
6828;SDS011;17930;48.592;8.868;2023-11-19T01:05:29;7.67;;;4.27;;
6828;SDS011;17930;48.592;8.868;2023-11-19T01:07:56;6.53;;;4.93;;
6828;SDS011;17930;48.592;8.868;2023-11-19T01:10:23;7.67;;;4.67;;
6828;SDS011;17930;48.592;8.868;2023-11-19T01:12:52;6.20;;;4.57;;
6828;SDS011;17930;48.592;8.868;2023-11-19T01:15:19;5.37;;;3.90;;
6828;SDS011;17930;48.592;8.868;2023-11-19T01:17:46;7.50;;;4.30;;
6828;SDS011;17930;48.592;8.868;2023-11-19T01:20:12;7.37;;;4.50;;
6828;SDS011;17930;48.592;8.868;2023-11-19T01:22:39;4.60;;;3.77;;
6828;SDS011;17930;48.592;8.868;2023-11-19T01:25:06;6.03;;;3.77;;
6828;SDS011;17930;48.592;8.868;2023-11-19T01:27:33;6.40;;;4.00;;
6828;SDS011;17930;48.592;8.868;2023-11-19T01:30:02;5.20;;;3.17;;
6828;SDS011;17930;48.592;8.868;2023-11-19T01:32:29;6.50;;;4.20;;
6828;SDS011;17930;48.592;8.868;2023-11-19T01:34:56;5.53;;;3.50;;
6828;SDS011;17930;48.592;8.868;2023-11-19T01:37:23;6.80;;;3.93;;
6828;SDS011;17930;48.592;8.868;2023-11-19T01:39:50;7.20;;;3.63;;
6828;SDS011;17930;48.592;8.868;2023-11-19T01:42:16;6.00;;;3.20;;
6828;SDS011;17930;48.592;8.868;2023-11-19T01:44:53;5.90;;;3.27;;
6828;SDS011;17930;48.592;8.868;2023-11-19T01:47:24;4.00;;;2.73;;
6828;SDS011;17930;48.592;8.868;2023-11-19T01:49:51;4.63;;;2.87;;
6828;SDS011;17930;48.592;8.868;2023-11-19T01:52:18;3.27;;;2.73;;
6828;SDS011;17930;48.592;8.868;2023-11-19T01:54:46;5.20;;;2.60;;
6828;SDS011;17930;48.592;8.868;2023-11-19T01:57:13;4.40;;;3.30;;
6828;SDS011;17930;48.592;8.868;2023-11-19T01:59:41;3.37;;;2.60;;
6828;SDS011;17930;48.592;8.868;2023-11-19T02:02:08;5.37;;;3.37;;
6828;SDS011;17930;48.592;8.868;2023-11-19T02:04:36;3.47;;;2.80;;
6828;SDS011;17930;48.592;8.868;2023-11-19T02:07:06;3.67;;;3.23;;
6828;SDS011;17930;48.592;8.868;2023-11-19T02:09:34;4.53;;;2.83;;
6828;SDS011;17930;48.592;8.868;2023-11-19T02:12:01;4.07;;;2.80;;
6828;SDS011;17930;48.592;8.868;2023-11-19T02:14:28;4.03;;;3.00;;
6828;SDS011;17930;48.592;8.868;2023-11-19T02:16:54;3.80;;;3.00;;
6828;SDS011;17930;48.592;8.868;2023-11-19T02:19:21;4.77;;;2.70;;
6828;SDS011;17930;48.592;8.868;2023-11-19T02:21:49;3.07;;;2.30;;
6828;SDS011;17930;48.592;8.868;2023-11-19T02:24:16;3.23;;;2.03;;
6828;SDS011;17930;48.592;8.868;2023-11-19T02:26:50;3.93;;;2.40;;
6828;SDS011;17930;48.592;8.868;2023-11-19T02:29:25;2.67;;;2.10;;
6828;SDS011;17930;48.592;8.868;2023-11-19T02:31:52;2.97;;;2.27;;
6828;SDS011;17930;48.592;8.868;2023-11-19T02:34:20;2.60;;;2.03;;
6828;SDS011;17930;48.592;8.868;2023-11-19T02:36:47;4.53;;;2.50;;
6828;SDS011;17930;48.592;8.868;2023-11-19T02:39:15;3.30;;;2.50;;
6828;SDS011;17930;48.592;8.868;2023-11-19T02:41:46;1.50;;;1.30;;
6828;SDS011;17930;48.592;8.868;2023-11-19T02:44:16;1.73;;;1.00;;
6828;SDS011;17930;48.592;8.868;2023-11-19T02:46:44;2.10;;;1.53;;
6828;SDS011;17930;48.592;8.868;2023-11-19T02:49:11;2.10;;;1.67;;
6828;SDS011;17930;48.592;8.868;2023-11-19T02:51:37;3.43;;;1.60;;
6828;SDS011;17930;48.592;8.868;2023-11-19T02:54:04;4.33;;;1.70;;
6828;SDS011;17930;48.592;8.868;2023-11-19T02:56:31;1.00;;;0.70;;
6828;SDS011;17930;48.592;8.868;2023-11-19T02:59:02;1.10;;;1.00;;
6828;SDS011;17930;48.592;8.868;2023-11-19T03:01:34;0.80;;;0.80;;
6828;SDS011;17930;48.592;8.868;2023-11-19T03:04:02;1.60;;;0.83;;
6828;SDS011;17930;48.592;8.868;2023-11-19T03:06:29;1.00;;;0.90;;
6828;SDS011;17930;48.592;8.868;2023-11-19T03:08:57;1.73;;;0.77;;
6828;SDS011;17930;48.592;8.868;2023-11-19T03:11:23;0.67;;;0.43;;
6828;SDS011;17930;48.592;8.868;2023-11-19T03:13:50;0.73;;;0.53;;
6828;SDS011;17930;48.592;8.868;2023-11-19T03:16:17;0.83;;;0.80;;
6828;SDS011;17930;48.592;8.868;2023-11-19T03:18:44;1.00;;;0.80;;
6828;SDS011;17930;48.592;8.868;2023-11-19T03:21:12;0.33;;;0.33;;
6828;SDS011;17930;48.592;8.868;2023-11-19T03:23:39;0.63;;;0.40;;
6828;SDS011;17930;48.592;8.868;2023-11-19T03:26:06;0.40;;;0.40;;
6828;SDS011;17930;48.592;8.868;2023-11-19T03:28:33;1.60;;;0.40;;
6828;SDS011;17930;48.592;8.868;2023-11-19T03:31:01;0.40;;;0.40;;
6828;SDS011;17930;48.592;8.868;2023-11-19T03:33:27;0.30;;;0.30;;
6828;SDS011;17930;48.592;8.868;2023-11-19T03:35:54;0.50;;;0.50;;
6828;SDS011;17930;48.592;8.868;2023-11-19T03:38:23;0.30;;;0.30;;
6828;SDS011;17930;48.592;8.868;2023-11-19T03:40:50;1.00;;;0.50;;
6828;SDS011;17930;48.592;8.868;2023-11-19T03:43:17;0.30;;;0.30;;
6828;SDS011;17930;48.592;8.868;2023-11-19T03:45:44;1.23;;;0.30;;
6828;SDS011;17930;48.592;8.868;2023-11-19T03:48:11;0.37;;;0.37;;
6828;SDS011;17930;48.592;8.868;2023-11-19T03:50:38;0.87;;;0.83;;
6828;SDS011;17930;48.592;8.868;2023-11-19T03:53:04;2.60;;;0.70;;
6828;SDS011;17930;48.592;8.868;2023-11-19T03:55:33;0.80;;;0.60;;
6828;SDS011;17930;48.592;8.868;2023-11-19T03:57:59;0.50;;;0.50;;
6828;SDS011;17930;48.592;8.868;2023-11-19T04:00:26;0.30;;;0.30;;
6828;SDS011;17930;48.592;8.868;2023-11-19T04:02:53;0.43;;;0.43;;
6828;SDS011;17930;48.592;8.868;2023-11-19T04:05:19;0.47;;;0.47;;
6828;SDS011;17930;48.592;8.868;2023-11-19T04:07:46;0.40;;;0.40;;
6828;SDS011;17930;48.592;8.868;2023-11-19T04:10:13;0.30;;;0.30;;
6828;SDS011;17930;48.592;8.868;2023-11-19T04:12:43;0.30;;;0.30;;
6828;SDS011;17930;48.592;8.868;2023-11-19T04:15:10;0.30;;;0.30;;
6828;SDS011;17930;48.592;8.868;2023-11-19T04:17:38;0.40;;;0.40;;
6828;SDS011;17930;48.592;8.868;2023-11-19T04:20:05;0.30;;;0.30;;
6828;SDS011;17930;48.592;8.868;2023-11-19T04:22:36;0.40;;;0.40;;
6828;SDS011;17930;48.592;8.868;2023-11-19T04:25:03;0.40;;;0.40;;
6828;SDS011;17930;48.592;8.868;2023-11-19T04:27:30;0.30;;;0.30;;
6828;SDS011;17930;48.592;8.868;2023-11-19T04:29:58;0.30;;;0.30;;
6828;SDS011;17930;48.592;8.868;2023-11-19T04:32:26;0.50;;;0.30;;
6828;SDS011;17930;48.592;8.868;2023-11-19T04:34:54;0.30;;;0.30;;
6828;SDS011;17930;48.592;8.868;2023-11-19T04:37:21;0.27;;;0.27;;
6828;SDS011;17930;48.592;8.868;2023-11-19T04:39:48;0.37;;;0.37;;
6828;SDS011;17930;48.592;8.868;2023-11-19T04:42:14;0.30;;;0.30;;
6828;SDS011;17930;48.592;8.868;2023-11-19T04:44:42;0.33;;;0.33;;
6828;SDS011;17930;48.592;8.868;2023-11-19T04:47:11;0.53;;;0.50;;
6828;SDS011;17930;48.592;8.868;2023-11-19T04:49:39;0.80;;;0.80;;
6828;SDS011;17930;48.592;8.868;2023-11-19T04:52:08;1.00;;;0.90;;
6828;SDS011;17930;48.592;8.868;2023-11-19T04:54:34;1.67;;;0.83;;
6828;SDS011;17930;48.592;8.868;2023-11-19T04:57:01;0.57;;;0.57;;
6828;SDS011;17930;48.592;8.868;2023-11-19T04:59:28;0.60;;;0.50;;
6828;SDS011;17930;48.592;8.868;2023-11-19T05:01:55;0.37;;;0.37;;
6828;SDS011;17930;48.592;8.868;2023-11-19T05:04:22;0.30;;;0.30;;
6828;SDS011;17930;48.592;8.868;2023-11-19T05:06:49;0.30;;;0.30;;
6828;SDS011;17930;48.592;8.868;2023-11-19T05:09:16;0.70;;;0.57;;
6828;SDS011;17930;48.592;8.868;2023-11-19T05:11:43;0.40;;;0.40;;
6828;SDS011;17930;48.592;8.868;2023-11-19T05:14:10;0.57;;;0.30;;
6828;SDS011;17930;48.592;8.868;2023-11-19T05:16:39;0.87;;;0.70;;
6828;SDS011;17930;48.592;8.868;2023-11-19T05:19:05;0.40;;;0.40;;
6828;SDS011;17930;48.592;8.868;2023-11-19T05:21:33;0.60;;;0.60;;
6828;SDS011;17930;48.592;8.868;2023-11-19T05:24:01;0.60;;;0.50;;
6828;SDS011;17930;48.592;8.868;2023-11-19T05:26:29;0.40;;;0.40;;
6828;SDS011;17930;48.592;8.868;2023-11-19T05:28:57;0.43;;;0.43;;
6828;SDS011;17930;48.592;8.868;2023-11-19T05:31:23;0.47;;;0.47;;
6828;SDS011;17930;48.592;8.868;2023-11-19T05:33:50;1.17;;;0.40;;
6828;SDS011;17930;48.592;8.868;2023-11-19T05:36:17;0.30;;;0.30;;
6828;SDS011;17930;48.592;8.868;2023-11-19T05:38:45;0.40;;;0.40;;
6828;SDS011;17930;48.592;8.868;2023-11-19T05:41:11;2.63;;;0.50;;
6828;SDS011;17930;48.592;8.868;2023-11-19T05:43:38;0.50;;;0.50;;
6828;SDS011;17930;48.592;8.868;2023-11-19T05:46:06;0.40;;;0.40;;
6828;SDS011;17930;48.592;8.868;2023-11-19T05:48:34;0.57;;;0.50;;
6828;SDS011;17930;48.592;8.868;2023-11-19T05:51:02;0.27;;;0.27;;
6828;SDS011;17930;48.592;8.868;2023-11-19T05:53:29;0.40;;;0.40;;
6828;SDS011;17930;48.592;8.868;2023-11-19T05:55:57;0.40;;;0.40;;
6828;SDS011;17930;48.592;8.868;2023-11-19T05:58:24;0.50;;;0.50;;
6828;SDS011;17930;48.592;8.868;2023-11-19T06:00:53;2.50;;;0.43;;
6828;SDS011;17930;48.592;8.868;2023-11-19T06:03:20;0.40;;;0.40;;
6828;SDS011;17930;48.592;8.868;2023-11-19T06:05:47;0.40;;;0.40;;
6828;SDS011;17930;48.592;8.868;2023-11-19T06:08:14;0.33;;;0.33;;
6828;SDS011;17930;48.592;8.868;2023-11-19T06:10:41;0.40;;;0.40;;
6828;SDS011;17930;48.592;8.868;2023-11-19T06:13:10;0.40;;;0.40;;
6828;SDS011;17930;48.592;8.868;2023-11-19T06:15:37;0.50;;;0.50;;
6828;SDS011;17930;48.592;8.868;2023-11-19T06:18:04;1.57;;;0.70;;
6828;SDS011;17930;48.592;8.868;2023-11-19T06:20:31;0.77;;;0.77;;
6828;SDS011;17930;48.592;8.868;2023-11-19T06:22:58;0.50;;;0.50;;
6828;SDS011;17930;48.592;8.868;2023-11-19T06:25:25;0.60;;;0.60;;
6828;SDS011;17930;48.592;8.868;2023-11-19T06:27:52;0.40;;;0.37;;
6828;SDS011;17930;48.592;8.868;2023-11-19T06:30:20;0.60;;;0.60;;
6828;SDS011;17930;48.592;8.868;2023-11-19T06:32:47;2.83;;;0.60;;
6828;SDS011;17930;48.592;8.868;2023-11-19T06:35:14;0.90;;;0.60;;
6828;SDS011;17930;48.592;8.868;2023-11-19T06:37:41;0.50;;;0.50;;
6828;SDS011;17930;48.592;8.868;2023-11-19T06:40:08;0.53;;;0.53;;
6828;SDS011;17930;48.592;8.868;2023-11-19T06:42:37;0.60;;;0.57;;
6828;SDS011;17930;48.592;8.868;2023-11-19T06:45:05;1.83;;;0.60;;
6828;SDS011;17930;48.592;8.868;2023-11-19T06:47:34;0.60;;;0.60;;
6828;SDS011;17930;48.592;8.868;2023-11-19T06:50:01;0.40;;;0.40;;
6828;SDS011;17930;48.592;8.868;2023-11-19T06:52:30;0.50;;;0.50;;
6828;SDS011;17930;48.592;8.868;2023-11-19T06:54:57;0.83;;;0.70;;
6828;SDS011;17930;48.592;8.868;2023-11-19T06:57:24;0.97;;;0.90;;
6828;SDS011;17930;48.592;8.868;2023-11-19T06:59:50;0.80;;;0.80;;
6828;SDS011;17930;48.592;8.868;2023-11-19T07:02:17;0.67;;;0.60;;
6828;SDS011;17930;48.592;8.868;2023-11-19T07:04:45;1.00;;;0.73;;
6828;SDS011;17930;48.592;8.868;2023-11-19T07:07:12;1.07;;;0.80;;
6828;SDS011;17930;48.592;8.868;2023-11-19T07:09:40;0.70;;;0.70;;
6828;SDS011;17930;48.592;8.868;2023-11-19T07:12:08;0.87;;;0.80;;
6828;SDS011;17930;48.592;8.868;2023-11-19T07:14:34;0.73;;;0.53;;
6828;SDS011;17930;48.592;8.868;2023-11-19T07:17:01;0.80;;;0.80;;
6828;SDS011;17930;48.592;8.868;2023-11-19T07:19:28;0.70;;;0.70;;
6828;SDS011;17930;48.592;8.868;2023-11-19T07:21:56;1.87;;;1.50;;
6828;SDS011;17930;48.592;8.868;2023-11-19T07:24:22;1.20;;;0.70;;
6828;SDS011;17930;48.592;8.868;2023-11-19T07:26:50;2.13;;;0.73;;
6828;SDS011;17930;48.592;8.868;2023-11-19T07:29:17;17.43;;;6.33;;
6828;SDS011;17930;48.592;8.868;2023-11-19T07:31:43;44.23;;;18.57;;
6828;SDS011;17930;48.592;8.868;2023-11-19T07:34:10;3.37;;;1.93;;
6828;SDS011;17930;48.592;8.868;2023-11-19T07:36:37;1.70;;;1.30;;
6828;SDS011;17930;48.592;8.868;2023-11-19T07:39:05;1.17;;;1.00;;
6828;SDS011;17930;48.592;8.868;2023-11-19T07:41:32;2.07;;;1.33;;
6828;SDS011;17930;48.592;8.868;2023-11-19T07:43:59;1.23;;;1.13;;
6828;SDS011;17930;48.592;8.868;2023-11-19T07:46:26;1.53;;;1.33;;
6828;SDS011;17930;48.592;8.868;2023-11-19T07:48:52;1.37;;;1.17;;
6828;SDS011;17930;48.592;8.868;2023-11-19T07:51:19;2.00;;;1.17;;
6828;SDS011;17930;48.592;8.868;2023-11-19T07:53:46;1.23;;;0.90;;
6828;SDS011;17930;48.592;8.868;2023-11-19T07:56:15;1.50;;;1.00;;
6828;SDS011;17930;48.592;8.868;2023-11-19T07:58:42;1.47;;;1.00;;
6828;SDS011;17930;48.592;8.868;2023-11-19T08:01:09;1.37;;;1.17;;
6828;SDS011;17930;48.592;8.868;2023-11-19T08:03:36;1.27;;;1.03;;
6828;SDS011;17930;48.592;8.868;2023-11-19T08:06:03;1.87;;;1.50;;
6828;SDS011;17930;48.592;8.868;2023-11-19T08:08:30;1.20;;;0.80;;
6828;SDS011;17930;48.592;8.868;2023-11-19T08:10:58;4.00;;;1.50;;
6828;SDS011;17930;48.592;8.868;2023-11-19T08:13:26;3.27;;;0.93;;
6828;SDS011;17930;48.592;8.868;2023-11-19T08:15:53;1.70;;;0.87;;
6828;SDS011;17930;48.592;8.868;2023-11-19T08:18:20;1.00;;;0.90;;
6828;SDS011;17930;48.592;8.868;2023-11-19T08:20:46;0.97;;;0.90;;
6828;SDS011;17930;48.592;8.868;2023-11-19T08:23:17;0.90;;;0.90;;
6828;SDS011;17930;48.592;8.868;2023-11-19T08:25:44;2.93;;;1.00;;
6828;SDS011;17930;48.592;8.868;2023-11-19T08:28:11;2.50;;;0.80;;
6828;SDS011;17930;48.592;8.868;2023-11-19T08:30:39;2.23;;;0.97;;
6828;SDS011;17930;48.592;8.868;2023-11-19T08:33:06;0.63;;;0.63;;
6828;SDS011;17930;48.592;8.868;2023-11-19T08:35:33;1.10;;;0.80;;
6828;SDS011;17930;48.592;8.868;2023-11-19T08:37:59;0.80;;;0.70;;
6828;SDS011;17930;48.592;8.868;2023-11-19T08:40:27;0.80;;;0.80;;
6828;SDS011;17930;48.592;8.868;2023-11-19T08:42:54;1.63;;;1.23;;
6828;SDS011;17930;48.592;8.868;2023-11-19T08:45:21;1.50;;;1.03;;
6828;SDS011;17930;48.592;8.868;2023-11-19T08:47:49;1.10;;;1.00;;
6828;SDS011;17930;48.592;8.868;2023-11-19T08:50:16;1.67;;;0.97;;
6828;SDS011;17930;48.592;8.868;2023-11-19T08:52:43;0.90;;;0.77;;
6828;SDS011;17930;48.592;8.868;2023-11-19T08:55:10;2.00;;;0.80;;
6828;SDS011;17930;48.592;8.868;2023-11-19T08:57:38;2.50;;;1.10;;
6828;SDS011;17930;48.592;8.868;2023-11-19T09:00:06;3.67;;;1.10;;
6828;SDS011;17930;48.592;8.868;2023-11-19T09:02:33;0.90;;;0.80;;
6828;SDS011;17930;48.592;8.868;2023-11-19T09:05:02;1.93;;;1.17;;
6828;SDS011;17930;48.592;8.868;2023-11-19T09:07:28;1.07;;;0.90;;
6828;SDS011;17930;48.592;8.868;2023-11-19T09:09:55;1.37;;;1.03;;
6828;SDS011;17930;48.592;8.868;2023-11-19T09:12:22;2.40;;;1.00;;
6828;SDS011;17930;48.592;8.868;2023-11-19T09:14:49;1.50;;;1.40;;
6828;SDS011;17930;48.592;8.868;2023-11-19T09:17:15;3.40;;;2.77;;
6828;SDS011;17930;48.592;8.868;2023-11-19T09:19:43;1.20;;;1.10;;
6828;SDS011;17930;48.592;8.868;2023-11-19T09:22:11;2.33;;;1.70;;
6828;SDS011;17930;48.592;8.868;2023-11-19T09:24:38;6.30;;;3.97;;
6828;SDS011;17930;48.592;8.868;2023-11-19T09:27:04;3.37;;;2.17;;
6828;SDS011;17930;48.592;8.868;2023-11-19T09:29:31;5.20;;;3.30;;
6828;SDS011;17930;48.592;8.868;2023-11-19T09:31:59;1.30;;;1.20;;
6828;SDS011;17930;48.592;8.868;2023-11-19T09:34:26;8.40;;;4.23;;
6828;SDS011;17930;48.592;8.868;2023-11-19T09:36:53;1.33;;;0.90;;
6828;SDS011;17930;48.592;8.868;2023-11-19T09:39:21;1.10;;;1.00;;
6828;SDS011;17930;48.592;8.868;2023-11-19T09:41:47;1.43;;;1.10;;
6828;SDS011;17930;48.592;8.868;2023-11-19T09:44:14;5.73;;;3.80;;
6828;SDS011;17930;48.592;8.868;2023-11-19T09:46:43;5.37;;;2.57;;
6828;SDS011;17930;48.592;8.868;2023-11-19T09:49:11;2.03;;;1.10;;
6828;SDS011;17930;48.592;8.868;2023-11-19T09:51:39;0.93;;;0.90;;
6828;SDS011;17930;48.592;8.868;2023-11-19T09:54:06;0.60;;;0.60;;
6828;SDS011;17930;48.592;8.868;2023-11-19T09:56:35;0.67;;;0.67;;
6828;SDS011;17930;48.592;8.868;2023-11-19T09:59:04;1.47;;;1.10;;
6828;SDS011;17930;48.592;8.868;2023-11-19T10:01:31;0.50;;;0.50;;
6828;SDS011;17930;48.592;8.868;2023-11-19T10:04:01;1.17;;;1.00;;
6828;SDS011;17930;48.592;8.868;2023-11-19T10:06:27;3.50;;;1.30;;
6828;SDS011;17930;48.592;8.868;2023-11-19T10:08:55;2.20;;;1.50;;
6828;SDS011;17930;48.592;8.868;2023-11-19T10:11:22;1.37;;;1.03;;
6828;SDS011;17930;48.592;8.868;2023-11-19T10:13:50;0.80;;;0.70;;
6828;SDS011;17930;48.592;8.868;2023-11-19T10:16:18;1.17;;;1.00;;
6828;SDS011;17930;48.592;8.868;2023-11-19T10:18:45;6.47;;;3.73;;
6828;SDS011;17930;48.592;8.868;2023-11-19T10:21:12;1.70;;;1.17;;
6828;SDS011;17930;48.592;8.868;2023-11-19T10:23:48;0.40;;;0.40;;
6828;SDS011;17930;48.592;8.868;2023-11-19T10:26:16;0.93;;;0.70;;
6828;SDS011;17930;48.592;8.868;2023-11-19T10:28:44;0.50;;;0.30;;
6828;SDS011;17930;48.592;8.868;2023-11-19T10:31:13;1.07;;;0.57;;
6828;SDS011;17930;48.592;8.868;2023-11-19T10:33:40;2.27;;;1.40;;
6828;SDS011;17930;48.592;8.868;2023-11-19T10:36:08;1.47;;;0.83;;
6828;SDS011;17930;48.592;8.868;2023-11-19T10:38:35;0.80;;;0.80;;
6828;SDS011;17930;48.592;8.868;2023-11-19T10:41:01;3.37;;;1.80;;
6828;SDS011;17930;48.592;8.868;2023-11-19T10:43:29;0.70;;;0.70;;
6828;SDS011;17930;48.592;8.868;2023-11-19T10:46:08;0.60;;;0.60;;
6828;SDS011;17930;48.592;8.868;2023-11-19T10:48:38;1.40;;;0.97;;
6828;SDS011;17930;48.592;8.868;2023-11-19T10:51:05;0.87;;;0.60;;
6828;SDS011;17930;48.592;8.868;2023-11-19T10:53:33;1.63;;;0.60;;
6828;SDS011;17930;48.592;8.868;2023-11-19T10:56:04;0.93;;;0.50;;
6828;SDS011;17930;48.592;8.868;2023-11-19T10:58:35;0.60;;;0.60;;
6828;SDS011;17930;48.592;8.868;2023-11-19T11:01:06;0.50;;;0.50;;
6828;SDS011;17930;48.592;8.868;2023-11-19T11:03:39;1.33;;;0.63;;
6828;SDS011;17930;48.592;8.868;2023-11-19T11:06:07;2.40;;;0.93;;
6828;SDS011;17930;48.592;8.868;2023-11-19T11:08:36;1.30;;;0.70;;
6828;SDS011;17930;48.592;8.868;2023-11-19T11:11:03;1.07;;;0.50;;
6828;SDS011;17930;48.592;8.868;2023-11-19T11:13:31;1.03;;;0.93;;
6828;SDS011;17930;48.592;8.868;2023-11-19T11:16:00;2.07;;;0.80;;
6828;SDS011;17930;48.592;8.868;2023-11-19T11:18:27;0.63;;;0.63;;
6828;SDS011;17930;48.592;8.868;2023-11-19T11:20:55;1.13;;;0.50;;
6828;SDS011;17930;48.592;8.868;2023-11-19T11:23:37;1.10;;;0.60;;
6828;SDS011;17930;48.592;8.868;2023-11-19T11:29:24;1.00;;;0.90;;
6828;SDS011;17930;48.592;8.868;2023-11-19T11:32:01;2.53;;;0.87;;
6828;SDS011;17930;48.592;8.868;2023-11-19T11:34:42;1.07;;;0.60;;
6828;SDS011;17930;48.592;8.868;2023-11-19T11:37:21;0.70;;;0.60;;
6828;SDS011;17930;48.592;8.868;2023-11-19T11:39:52;1.30;;;0.40;;
6828;SDS011;17930;48.592;8.868;2023-11-19T11:42:32;0.60;;;0.60;;
6828;SDS011;17930;48.592;8.868;2023-11-19T11:45:00;0.70;;;0.60;;
6828;SDS011;17930;48.592;8.868;2023-11-19T11:50:28;0.67;;;0.67;;
6828;SDS011;17930;48.592;8.868;2023-11-19T11:55:57;0.63;;;0.63;;
6828;SDS011;17930;48.592;8.868;2023-11-19T11:58:29;0.60;;;0.57;;
6828;SDS011;17930;48.592;8.868;2023-11-19T12:01:03;1.00;;;0.50;;
6828;SDS011;17930;48.592;8.868;2023-11-19T12:03:32;0.73;;;0.70;;
6828;SDS011;17930;48.592;8.868;2023-11-19T12:05:59;0.73;;;0.60;;
6828;SDS011;17930;48.592;8.868;2023-11-19T12:08:28;1.00;;;0.67;;
6828;SDS011;17930;48.592;8.868;2023-11-19T12:10:57;1.00;;;0.70;;
6828;SDS011;17930;48.592;8.868;2023-11-19T12:13:24;0.60;;;0.60;;
6828;SDS011;17930;48.592;8.868;2023-11-19T12:16:10;1.00;;;0.67;;
6828;SDS011;17930;48.592;8.868;2023-11-19T12:18:40;0.57;;;0.50;;
6828;SDS011;17930;48.592;8.868;2023-11-19T12:21:07;0.67;;;0.67;;
6828;SDS011;17930;48.592;8.868;2023-11-19T12:23:45;0.47;;;0.47;;
6828;SDS011;17930;48.592;8.868;2023-11-19T12:26:32;1.37;;;0.47;;
6828;SDS011;17930;48.592;8.868;2023-11-19T12:29:00;0.50;;;0.50;;
6828;SDS011;17930;48.592;8.868;2023-11-19T12:31:29;3.03;;;0.63;;
6828;SDS011;17930;48.592;8.868;2023-11-19T12:33:56;0.93;;;0.60;;
6828;SDS011;17930;48.592;8.868;2023-11-19T12:36:23;1.07;;;0.50;;
6828;SDS011;17930;48.592;8.868;2023-11-19T12:38:51;1.50;;;0.60;;
6828;SDS011;17930;48.592;8.868;2023-11-19T12:41:17;0.60;;;0.60;;
6828;SDS011;17930;48.592;8.868;2023-11-19T12:43:47;0.50;;;0.50;;
6828;SDS011;17930;48.592;8.868;2023-11-19T12:46:17;1.10;;;0.70;;
6828;SDS011;17930;48.592;8.868;2023-11-19T12:48:45;2.77;;;0.90;;
6828;SDS011;17930;48.592;8.868;2023-11-19T12:51:12;1.33;;;0.60;;
6828;SDS011;17930;48.592;8.868;2023-11-19T12:53:47;0.93;;;0.60;;
6828;SDS011;17930;48.592;8.868;2023-11-19T12:56:17;0.97;;;0.70;;
6828;SDS011;17930;48.592;8.868;2023-11-19T12:58:43;1.20;;;0.60;;
6828;SDS011;17930;48.592;8.868;2023-11-19T13:01:14;0.40;;;0.40;;
6828;SDS011;17930;48.592;8.868;2023-11-19T13:03:42;0.90;;;0.50;;
6828;SDS011;17930;48.592;8.868;2023-11-19T13:06:09;1.43;;;0.70;;
6828;SDS011;17930;48.592;8.868;2023-11-19T13:08:37;1.07;;;0.73;;
6828;SDS011;17930;48.592;8.868;2023-11-19T13:11:05;1.00;;;0.60;;
6828;SDS011;17930;48.592;8.868;2023-11-19T13:13:49;0.73;;;0.53;;
6828;SDS011;17930;48.592;8.868;2023-11-19T13:16:23;0.67;;;0.50;;
6828;SDS011;17930;48.592;8.868;2023-11-19T13:18:50;1.77;;;0.50;;
6828;SDS011;17930;48.592;8.868;2023-11-19T13:21:17;0.63;;;0.50;;
6828;SDS011;17930;48.592;8.868;2023-11-19T13:23:44;0.60;;;0.50;;
6828;SDS011;17930;48.592;8.868;2023-11-19T13:26:11;6.37;;;0.70;;
6828;SDS011;17930;48.592;8.868;2023-11-19T13:28:39;2.93;;;0.70;;
6828;SDS011;17930;48.592;8.868;2023-11-19T13:31:06;0.87;;;0.50;;
6828;SDS011;17930;48.592;8.868;2023-11-19T13:33:33;1.83;;;1.00;;
6828;SDS011;17930;48.592;8.868;2023-11-19T13:36:01;0.60;;;0.60;;
6828;SDS011;17930;48.592;8.868;2023-11-19T13:38:31;1.43;;;0.40;;
6828;SDS011;17930;48.592;8.868;2023-11-19T13:40:58;0.60;;;0.60;;
6828;SDS011;17930;48.592;8.868;2023-11-19T13:43:25;0.63;;;0.60;;
6828;SDS011;17930;48.592;8.868;2023-11-19T13:45:54;0.60;;;0.50;;
6828;SDS011;17930;48.592;8.868;2023-11-19T13:48:23;1.07;;;0.57;;
6828;SDS011;17930;48.592;8.868;2023-11-19T13:50:51;0.60;;;0.50;;
6828;SDS011;17930;48.592;8.868;2023-11-19T13:53:18;0.70;;;0.70;;
6828;SDS011;17930;48.592;8.868;2023-11-19T13:55:46;1.47;;;0.80;;
6828;SDS011;17930;48.592;8.868;2023-11-19T13:58:13;1.73;;;0.70;;
6828;SDS011;17930;48.592;8.868;2023-11-19T14:00:41;1.63;;;0.70;;
6828;SDS011;17930;48.592;8.868;2023-11-19T14:03:09;0.73;;;0.67;;
6828;SDS011;17930;48.592;8.868;2023-11-19T14:05:37;1.23;;;0.53;;
6828;SDS011;17930;48.592;8.868;2023-11-19T14:08:05;1.00;;;0.70;;
6828;SDS011;17930;48.592;8.868;2023-11-19T14:10:37;1.53;;;0.83;;
6828;SDS011;17930;48.592;8.868;2023-11-19T14:13:06;0.77;;;0.73;;
6828;SDS011;17930;48.592;8.868;2023-11-19T14:15:34;1.03;;;0.80;;
6828;SDS011;17930;48.592;8.868;2023-11-19T14:18:03;0.83;;;0.70;;
6828;SDS011;17930;48.592;8.868;2023-11-19T14:20:32;0.93;;;0.60;;
6828;SDS011;17930;48.592;8.868;2023-11-19T14:23:01;0.50;;;0.50;;
6828;SDS011;17930;48.592;8.868;2023-11-19T14:25:32;1.03;;;0.67;;
6828;SDS011;17930;48.592;8.868;2023-11-19T14:27:59;2.10;;;1.17;;
6828;SDS011;17930;48.592;8.868;2023-11-19T14:30:30;0.93;;;0.70;;
6828;SDS011;17930;48.592;8.868;2023-11-19T14:32:59;0.70;;;0.43;;
6828;SDS011;17930;48.592;8.868;2023-11-19T14:35:26;0.53;;;0.53;;
6828;SDS011;17930;48.592;8.868;2023-11-19T14:37:53;1.00;;;0.70;;
6828;SDS011;17930;48.592;8.868;2023-11-19T14:40:20;0.80;;;0.70;;
6828;SDS011;17930;48.592;8.868;2023-11-19T14:42:47;0.60;;;0.60;;
6828;SDS011;17930;48.592;8.868;2023-11-19T14:45:14;1.53;;;0.60;;
6828;SDS011;17930;48.592;8.868;2023-11-19T14:47:41;0.50;;;0.50;;
6828;SDS011;17930;48.592;8.868;2023-11-19T14:50:09;0.93;;;0.60;;
6828;SDS011;17930;48.592;8.868;2023-11-19T14:52:37;1.73;;;0.67;;
6828;SDS011;17930;48.592;8.868;2023-11-19T14:55:06;1.23;;;0.70;;
6828;SDS011;17930;48.592;8.868;2023-11-19T14:57:35;0.93;;;0.67;;
6828;SDS011;17930;48.592;8.868;2023-11-19T15:00:05;1.37;;;0.97;;
6828;SDS011;17930;48.592;8.868;2023-11-19T15:02:38;0.70;;;0.60;;
6828;SDS011;17930;48.592;8.868;2023-11-19T15:05:06;0.67;;;0.60;;
6828;SDS011;17930;48.592;8.868;2023-11-19T15:07:35;2.00;;;1.20;;
6828;SDS011;17930;48.592;8.868;2023-11-19T15:10:02;0.90;;;0.73;;
6828;SDS011;17930;48.592;8.868;2023-11-19T15:12:36;1.93;;;0.70;;
6828;SDS011;17930;48.592;8.868;2023-11-19T15:15:07;2.00;;;0.80;;